KBUR/BUR METAR and TAF weather

Enter ICAO airport designator
Station Type Date Time Source
KBUR METAR 2021/09/25 12:53 UTC NOAA

KBUR 251253Z 00000KT 10SM CLR 17/13 A2997 RMK AO2 SLP138 T01720133 $


Station Type Date Time Source
KBUR Decoded METAR 2021/09/25 12:53 UTC NOAA

BURBANK-GLENDALE-PASADENA, CA, United States (KBUR) 34-12N 118-22W 217M
Sep 25, 2021 - 08:53 AM EDT / 2021.09.25 1253 UTC
Wind: Calm:0
Visibility: 10 mile(s):0
Sky conditions: clear
Temperature: 63.0 F (17.2 C)
Dew Point: 55.9 F (13.3 C)
Relative Humidity: 77%
Pressure (altimeter): 29.97 in. Hg (1014 hPa)
ob: KBUR 251253Z 00000KT 10SM CLR 17/13 A2997 RMK AO2 SLP138 T01720133
cycle: 13

Station Type Date Time Source
KBUR TAF 2021/09/25 12:42 UTC NOAA

TAF KBUR 251140Z 2512/2612 VRB03KT P6SM SCT120
FM252000 17009KT P6SM SCT120
FM260200 12007KT P6SM SKC

Example: see airport list